createdAt,value
2017-03-07T00:00:15.081Z,21.03
2017-03-07T00:00:43.223Z,21.01
2017-03-07T00:01:11.320Z,21.01
2017-03-07T00:01:39.492Z,21.01
2017-03-07T00:02:07.778Z,21.04
2017-03-07T00:02:35.895Z,21
2017-03-07T00:03:04.056Z,20.97
2017-03-07T00:03:32.342Z,21
2017-03-07T00:04:00.479Z,21.01
2017-03-07T00:04:28.796Z,21.01
2017-03-07T00:04:56.889Z,21.03
2017-03-07T00:05:25.121Z,21.01
2017-03-07T00:05:53.314Z,21
2017-03-07T00:06:21.616Z,21.01
2017-03-07T00:06:49.923Z,21.03
2017-03-07T00:07:17.997Z,21.01
2017-03-07T00:07:46.168Z,21.04
2017-03-07T00:08:14.135Z,21
2017-03-07T00:08:42.375Z,20.98
2017-03-07T00:09:10.600Z,20.98
2017-03-07T00:09:38.696Z,20.98
2017-03-07T00:10:06.840Z,21.04
2017-03-07T00:10:35.026Z,21.01
2017-03-07T00:11:03.255Z,21.01
2017-03-07T00:11:31.553Z,21.04
2017-03-07T00:11:59.593Z,21
2017-03-07T00:12:27.862Z,21.01
2017-03-07T00:12:56.150Z,21.11
2017-03-07T00:13:24.424Z,21.01
2017-03-07T00:13:52.681Z,21.03
2017-03-07T00:14:21.080Z,21
2017-03-07T00:14:49.361Z,20.96
2017-03-07T00:15:17.392Z,21.01
2017-03-07T00:15:45.599Z,21.03
2017-03-07T00:16:13.573Z,21
2017-03-07T00:16:41.665Z,20.98
2017-03-07T00:17:09.778Z,21.01
2017-03-07T00:17:38.032Z,20.98
2017-03-07T00:18:06.337Z,20.91
2017-03-07T00:18:34.521Z,21.01
2017-03-07T00:19:02.732Z,21
2017-03-07T00:19:31.072Z,20.98
2017-03-07T00:19:59.306Z,21
2017-03-07T00:20:27.552Z,20.91
2017-03-07T00:20:55.703Z,20.97
2017-03-07T00:21:24.013Z,20.91
2017-03-07T00:21:51.997Z,20.93
2017-03-07T00:22:20.215Z,20.88
2017-03-07T00:22:48.309Z,20.82
2017-03-07T00:23:16.444Z,20.88
2017-03-07T00:23:44.572Z,20.88
2017-03-07T00:24:12.785Z,20.93
2017-03-07T00:24:41.101Z,20.91
2017-03-07T00:25:09.300Z,20.93
2017-03-07T00:25:37.355Z,20.81
2017-03-07T00:26:05.497Z,20.88
2017-03-07T00:26:33.700Z,20.83
2017-03-07T00:27:01.893Z,20.9
2017-03-07T00:27:30.057Z,20.82
2017-03-07T00:27:58.239Z,20.91
2017-03-07T00:28:26.299Z,20.88
2017-03-07T00:28:54.593Z,20.83
2017-03-07T00:29:22.625Z,20.9
2017-03-07T00:29:50.941Z,20.85
2017-03-07T00:30:19.033Z,20.88
2017-03-07T00:30:47.126Z,20.88
2017-03-07T00:31:15.303Z,20.88
2017-03-07T00:31:43.561Z,20.83
2017-03-07T00:32:11.649Z,20.91
2017-03-07T00:32:39.817Z,20.83
2017-03-07T00:33:08.099Z,20.97
2017-03-07T00:33:36.189Z,20.93
2017-03-07T00:34:04.183Z,20.93
2017-03-07T00:34:32.571Z,20.86
2017-03-07T00:35:00.763Z,20.94
2017-03-07T00:35:28.996Z,20.97
2017-03-07T00:35:57.078Z,20.98
2017-03-07T00:36:25.221Z,21
2017-03-07T00:36:53.482Z,20.94
2017-03-07T00:37:21.562Z,21.03
2017-03-07T00:37:49.672Z,21.01
2017-03-07T00:38:17.765Z,21
2017-03-07T00:38:45.941Z,20.98
2017-03-07T00:39:13.997Z,21
2017-03-07T00:39:42.273Z,21
2017-03-07T00:40:10.536Z,21.01
2017-03-07T00:40:38.704Z,21
2017-03-07T00:41:07.023Z,20.98
2017-03-07T00:41:35.097Z,21.01
2017-03-07T00:42:03.262Z,21
2017-03-07T00:42:31.410Z,20.93
2017-03-07T00:42:59.595Z,21.01
2017-03-07T00:43:27.767Z,20.86
2017-03-07T00:43:56.033Z,20.93
2017-03-07T00:44:24.336Z,20.9
2017-03-07T00:44:52.366Z,20.86
2017-03-07T00:45:20.409Z,20.86
2017-03-07T00:45:48.512Z,20.9
2017-03-07T00:46:16.581Z,20.83
2017-03-07T00:46:44.763Z,20.93
2017-03-07T00:47:12.976Z,20.91
2017-03-07T00:47:41.185Z,20.86
2017-03-07T00:48:09.205Z,20.86
2017-03-07T00:48:37.214Z,20.83
2017-03-07T00:49:05.428Z,20.93
2017-03-07T00:49:33.807Z,20.93
2017-03-07T00:50:01.904Z,20.88
2017-03-07T00:50:30.053Z,20.85
2017-03-07T00:50:58.082Z,20.9
2017-03-07T00:51:26.284Z,20.83
2017-03-07T00:51:54.584Z,20.88
2017-03-07T00:52:22.879Z,20.9
2017-03-07T00:52:51.191Z,20.9
2017-03-07T00:53:19.490Z,20.83
2017-03-07T00:53:47.637Z,20.96
2017-03-07T00:54:15.706Z,20.82
2017-03-07T00:54:43.983Z,20.85
2017-03-07T00:55:12.312Z,20.85
2017-03-07T00:55:40.528Z,20.91
2017-03-07T00:56:08.752Z,20.88
2017-03-07T00:56:36.933Z,20.82
2017-03-07T00:57:05.092Z,20.88
2017-03-07T00:57:33.269Z,20.86
2017-03-07T00:58:01.541Z,20.94
2017-03-07T00:58:29.603Z,20.79
2017-03-07T00:58:57.796Z,20.88
2017-03-07T00:59:25.957Z,20.86
2017-03-07T00:59:54.049Z,20.86
2017-03-07T01:00:22.368Z,20.85
2017-03-07T01:00:50.445Z,20.85
2017-03-07T01:01:18.671Z,20.85
2017-03-07T01:01:46.785Z,20.78
2017-03-07T01:02:14.865Z,20.81
2017-03-07T01:02:43.064Z,20.93
2017-03-07T01:03:11.349Z,20.88
2017-03-07T01:03:39.566Z,20.85
2017-03-07T01:04:07.685Z,20.9
2017-03-07T01:04:35.977Z,20.9
2017-03-07T01:05:04.063Z,20.83
2017-03-07T01:05:32.343Z,20.88
2017-03-07T01:06:00.292Z,20.88
2017-03-07T01:06:28.495Z,20.88
2017-03-07T01:06:56.652Z,20.83
2017-03-07T01:07:24.853Z,20.88
2017-03-07T01:07:53.059Z,20.81
2017-03-07T01:08:21.139Z,20.85
2017-03-07T01:08:49.473Z,20.91
2017-03-07T01:09:17.565Z,20.81
2017-03-07T01:09:45.795Z,20.86
2017-03-07T01:10:14.099Z,20.93
2017-03-07T01:10:42.253Z,20.88
2017-03-07T01:11:10.455Z,20.81
2017-03-07T01:11:38.400Z,20.9
2017-03-07T01:12:06.579Z,20.83
2017-03-07T01:12:34.638Z,20.86
2017-03-07T01:13:02.782Z,20.83
2017-03-07T01:13:30.902Z,20.88
2017-03-07T01:13:59.010Z,20.83
2017-03-07T01:14:27.307Z,20.86
2017-03-07T01:14:55.480Z,20.88
2017-03-07T01:15:23.711Z,20.88
2017-03-07T01:15:51.865Z,20.91
2017-03-07T01:16:19.834Z,20.91
2017-03-07T01:16:48.131Z,20.86
2017-03-07T01:17:16.349Z,20.85
2017-03-07T01:17:44.485Z,20.86
2017-03-07T01:18:12.664Z,20.96
2017-03-07T01:18:40.833Z,20.86
2017-03-07T01:19:09.156Z,20.97
2017-03-07T01:19:37.307Z,20.88
2017-03-07T01:20:05.572Z,20.93
2017-03-07T01:20:33.646Z,20.91
2017-03-07T01:21:02.154Z,20.9
2017-03-07T01:21:30.387Z,20.9
2017-03-07T01:21:58.533Z,20.88
2017-03-07T01:22:26.784Z,20.94
2017-03-07T01:22:54.973Z,20.93
2017-03-07T01:23:23.241Z,20.94
2017-03-07T01:23:51.401Z,21
2017-03-07T01:25:02.661Z,20.96
2017-03-07T01:25:30.952Z,20.93
2017-03-07T01:25:59.171Z,20.93
2017-03-07T01:26:27.403Z,20.98
2017-03-07T01:26:55.604Z,20.88
2017-03-07T01:27:23.769Z,21.03
2017-03-07T01:27:51.938Z,20.98
2017-03-07T01:28:20.043Z,20.97
2017-03-07T01:28:48.231Z,21
2017-03-07T01:29:16.409Z,20.96
2017-03-07T01:29:44.598Z,21.01
2017-03-07T01:30:12.806Z,21.04
2017-03-07T01:30:40.930Z,21.01
2017-03-07T01:31:09.016Z,21.04
2017-03-07T01:31:37.168Z,20.98
2017-03-07T01:32:05.471Z,20.94
2017-03-07T01:32:33.625Z,20.96
2017-03-07T01:33:01.838Z,21
2017-03-07T01:33:30.017Z,20.94
2017-03-07T01:33:58.196Z,21
2017-03-07T01:34:26.293Z,20.93
2017-03-07T01:34:54.482Z,20.93
2017-03-07T01:35:22.682Z,20.96
2017-03-07T01:35:50.951Z,20.96
2017-03-07T01:36:19.110Z,20.88
2017-03-07T01:36:47.052Z,20.97
2017-03-07T01:37:15.327Z,20.98
2017-03-07T01:37:43.548Z,20.91
2017-03-07T01:38:11.773Z,20.96
2017-03-07T01:38:39.993Z,20.96
2017-03-07T01:39:08.139Z,20.98
2017-03-07T01:39:36.447Z,21.01
2017-03-07T01:40:04.652Z,20.97
2017-03-07T01:40:32.903Z,21
2017-03-07T01:41:00.997Z,20.94
2017-03-07T01:41:29.181Z,20.94
2017-03-07T01:41:57.367Z,21.01
2017-03-07T01:42:25.653Z,20.98
2017-03-07T01:42:53.749Z,20.94
2017-03-07T01:43:21.873Z,20.98
2017-03-07T01:43:49.925Z,20.86
2017-03-07T01:44:18.106Z,20.91
2017-03-07T01:44:46.340Z,20.93
2017-03-07T01:45:14.700Z,20.88
2017-03-07T01:45:42.665Z,20.88
2017-03-07T01:46:10.920Z,20.81
2017-03-07T01:46:39.086Z,20.88
2017-03-07T01:47:07.367Z,20.93
2017-03-07T01:47:35.455Z,20.9
2017-03-07T01:48:03.640Z,20.85
2017-03-07T01:48:31.788Z,20.85
2017-03-07T01:48:59.952Z,20.85
2017-03-07T01:49:28.109Z,20.94
2017-03-07T01:49:56.360Z,20.85
2017-03-07T01:50:24.580Z,20.86
2017-03-07T01:50:52.699Z,20.83
2017-03-07T01:51:20.807Z,20.78
2017-03-07T01:51:48.926Z,20.85
2017-03-07T01:52:17.242Z,20.79
2017-03-07T01:52:45.431Z,20.83
2017-03-07T01:53:13.531Z,20.82
2017-03-07T01:53:41.719Z,20.82
2017-03-07T01:54:09.876Z,20.79
2017-03-07T01:54:38.054Z,20.82
2017-03-07T01:55:06.276Z,20.76
2017-03-07T01:55:34.610Z,20.82
2017-03-07T01:56:02.767Z,20.72
2017-03-07T01:56:30.932Z,20.72
2017-03-07T01:56:59.032Z,20.82
2017-03-07T01:57:27.160Z,20.78
2017-03-07T01:57:55.273Z,20.78
2017-03-07T01:58:23.544Z,20.78
2017-03-07T01:58:51.816Z,20.76
2017-03-07T01:59:20.106Z,20.79
2017-03-07T01:59:48.280Z,20.76
2017-03-07T02:00:16.462Z,20.76
2017-03-07T02:00:44.667Z,20.67
2017-03-07T02:01:12.912Z,20.71
2017-03-07T02:01:41.131Z,20.74
2017-03-07T02:02:09.212Z,20.79
2017-03-07T02:02:37.309Z,20.71
2017-03-07T02:03:05.592Z,20.67
2017-03-07T02:03:33.735Z,20.66
2017-03-07T02:04:01.976Z,20.72
2017-03-07T02:04:30.191Z,20.74
2017-03-07T02:04:58.367Z,20.71
2017-03-07T02:05:26.657Z,20.78
2017-03-07T02:05:54.827Z,20.72
2017-03-07T02:06:22.948Z,20.67
2017-03-07T02:06:51.204Z,20.76
2017-03-07T02:07:19.179Z,20.68
2017-03-07T02:07:47.387Z,20.72
2017-03-07T02:08:15.570Z,20.71
2017-03-07T02:08:43.789Z,20.67
2017-03-07T02:09:12.054Z,20.66
2017-03-07T02:09:40.293Z,20.68
2017-03-07T02:10:08.381Z,20.71
2017-03-07T02:10:36.647Z,20.78
2017-03-07T02:11:04.931Z,20.72
2017-03-07T02:11:33.156Z,20.76
2017-03-07T02:12:01.190Z,20.75
2017-03-07T02:12:29.332Z,20.79
2017-03-07T02:12:57.532Z,20.82
2017-03-07T02:13:25.729Z,20.81
2017-03-07T02:13:54.029Z,20.82
2017-03-07T02:14:22.311Z,20.82
2017-03-07T02:14:50.406Z,20.82
2017-03-07T02:15:18.435Z,20.83
2017-03-07T02:15:46.546Z,20.82
2017-03-07T02:16:14.738Z,20.83
2017-03-07T02:16:42.981Z,20.83
2017-03-07T02:17:11.154Z,20.83
2017-03-07T02:17:39.613Z,20.85
2017-03-07T02:18:07.703Z,20.85
2017-03-07T02:18:35.856Z,20.81
2017-03-07T02:19:04.036Z,20.82
2017-03-07T02:19:32.214Z,20.82
2017-03-07T02:20:00.278Z,20.82
2017-03-07T02:20:28.456Z,20.78
2017-03-07T02:20:56.652Z,20.78
2017-03-07T02:21:24.729Z,20.86
2017-03-07T02:21:52.948Z,20.82
2017-03-07T02:22:21.061Z,20.85
2017-03-07T02:22:49.181Z,20.79
2017-03-07T02:23:17.244Z,20.76
2017-03-07T02:23:45.360Z,20.85
2017-03-07T02:24:13.563Z,20.82
2017-03-07T02:24:41.862Z,20.82
2017-03-07T02:25:10.090Z,20.82
2017-03-07T02:25:38.296Z,20.86
2017-03-07T02:26:06.492Z,20.91
2017-03-07T02:26:34.679Z,20.83
2017-03-07T02:27:02.798Z,20.85
2017-03-07T02:27:31.001Z,20.88
2017-03-07T02:27:59.192Z,20.83
2017-03-07T02:28:27.383Z,20.93
2017-03-07T02:28:55.677Z,20.9
2017-03-07T02:29:23.956Z,20.88
2017-03-07T02:29:52.098Z,20.82
2017-03-07T02:30:20.121Z,20.9
2017-03-07T02:30:48.326Z,20.9
2017-03-07T02:31:16.655Z,20.9
2017-03-07T02:31:44.786Z,20.88
2017-03-07T02:32:12.864Z,20.88
2017-03-07T02:32:41.166Z,20.86
2017-03-07T02:33:09.259Z,20.93
2017-03-07T02:33:37.522Z,20.93
2017-03-07T02:34:05.718Z,21.01
2017-03-07T02:34:33.923Z,21
2017-03-07T02:35:02.128Z,20.98
2017-03-07T02:35:30.428Z,21
2017-03-07T02:35:58.582Z,21.03
2017-03-07T02:36:26.743Z,21.06
2017-03-07T02:36:55.002Z,21
2017-03-07T02:37:23.326Z,21.12
2017-03-07T02:37:51.284Z,21.09
2017-03-07T02:38:19.444Z,21.15
2017-03-07T02:38:47.452Z,21.06
2017-03-07T02:39:15.530Z,21.15
2017-03-07T02:39:43.637Z,21.09
2017-03-07T02:40:11.926Z,21.21
2017-03-07T02:40:40.171Z,21.15
2017-03-07T02:41:08.362Z,21.09
2017-03-07T02:41:36.478Z,21.21
2017-03-07T02:42:04.726Z,21.15
2017-03-07T02:42:32.907Z,21.15
2017-03-07T02:43:00.946Z,21.21
2017-03-07T02:43:29.075Z,21.18
2017-03-07T02:43:57.247Z,21.13
2017-03-07T02:44:25.428Z,21.23
2017-03-07T02:44:53.618Z,21.27
2017-03-07T02:45:21.811Z,21.22
2017-03-07T02:45:49.974Z,21.23
2017-03-07T02:46:18.150Z,21.18
2017-03-07T02:46:46.253Z,21.18
2017-03-07T02:47:14.513Z,21.15
2017-03-07T02:47:42.675Z,21.15
2017-03-07T02:48:10.788Z,21.18
2017-03-07T02:48:38.979Z,21.15
2017-03-07T02:49:07.104Z,21.16
2017-03-07T02:49:35.369Z,21.06
2017-03-07T02:50:03.533Z,21.12
2017-03-07T02:50:31.751Z,21.04
2017-03-07T02:51:00.068Z,21.11
2017-03-07T02:51:28.256Z,21.09
2017-03-07T02:51:56.527Z,21.06
2017-03-07T02:52:24.654Z,21.09
2017-03-07T02:52:52.862Z,21.09
2017-03-07T02:53:21.171Z,21.06
2017-03-07T02:53:49.254Z,21.01
2017-03-07T02:54:17.549Z,21.06
2017-03-07T02:54:45.829Z,21
2017-03-07T02:55:13.995Z,20.98
2017-03-07T02:55:42.133Z,21.03
2017-03-07T02:56:10.127Z,21.04
2017-03-07T02:56:38.237Z,21.09
2017-03-07T02:57:06.442Z,21
2017-03-07T02:57:34.534Z,21.01
2017-03-07T02:58:02.713Z,20.96
2017-03-07T02:58:30.897Z,20.96
2017-03-07T02:58:59.074Z,21.01
2017-03-07T02:59:27.172Z,20.96
2017-03-07T02:59:55.141Z,21
2017-03-07T03:00:23.139Z,20.94
2017-03-07T03:00:51.485Z,21
2017-03-07T03:01:19.771Z,20.97
2017-03-07T03:01:47.967Z,21.01
2017-03-07T03:02:16.238Z,21.01
2017-03-07T03:02:44.537Z,20.97
2017-03-07T03:03:12.731Z,21.01
2017-03-07T03:03:40.821Z,20.98
2017-03-07T03:04:08.932Z,21.03
2017-03-07T03:04:37.207Z,20.94
2017-03-07T03:05:05.342Z,20.96
2017-03-07T03:05:33.486Z,21.01
2017-03-07T03:06:01.659Z,20.97
2017-03-07T03:06:29.724Z,20.98
2017-03-07T03:06:57.920Z,20.88
2017-03-07T03:07:26.043Z,20.98
2017-03-07T03:07:54.245Z,20.93
2017-03-07T03:08:22.307Z,20.98
2017-03-07T03:08:50.490Z,21.03
2017-03-07T03:09:18.615Z,20.98
2017-03-07T03:09:46.752Z,20.85
2017-03-07T03:10:14.866Z,20.91
2017-03-07T03:10:43.162Z,20.93
2017-03-07T03:11:11.479Z,20.96
2017-03-07T03:11:39.427Z,20.91
2017-03-07T03:12:07.466Z,20.91
2017-03-07T03:12:35.767Z,20.94
2017-03-07T03:13:03.650Z,20.98
2017-03-07T03:13:31.705Z,20.96
2017-03-07T03:13:59.757Z,21.01
2017-03-07T03:14:27.869Z,21.04
2017-03-07T03:14:55.985Z,20.93
2017-03-07T03:15:24.163Z,20.91
2017-03-07T03:15:52.544Z,21
2017-03-07T03:16:20.696Z,20.96
2017-03-07T03:16:48.757Z,20.98
2017-03-07T03:17:17.030Z,20.98
2017-03-07T03:17:45.173Z,21.01
2017-03-07T03:18:13.179Z,21
2017-03-07T03:18:41.329Z,21
2017-03-07T03:19:09.525Z,21.03
2017-03-07T03:19:37.711Z,21.06
2017-03-07T03:20:05.728Z,21.03
2017-03-07T03:20:33.762Z,21.01
2017-03-07T03:21:02.092Z,21
2017-03-07T03:21:30.193Z,21.03
2017-03-07T03:21:58.389Z,21
2017-03-07T03:22:26.575Z,21
2017-03-07T03:22:54.570Z,21.09
2017-03-07T03:23:22.576Z,21
2017-03-07T03:23:50.890Z,21.04
2017-03-07T03:24:19.065Z,21.06
2017-03-07T03:24:47.155Z,20.97
2017-03-07T03:25:15.409Z,21.01
2017-03-07T03:25:43.595Z,21.06
2017-03-07T03:26:11.892Z,20.98
2017-03-07T03:26:40.207Z,21.12
2017-03-07T03:27:08.421Z,21.01
2017-03-07T03:27:36.603Z,21.13
2017-03-07T03:28:04.798Z,21.06
2017-03-07T03:28:32.764Z,21.08
2017-03-07T03:29:00.828Z,21.09
2017-03-07T03:29:29.449Z,21.08
2017-03-07T03:29:57.571Z,21.11
2017-03-07T03:30:25.665Z,21.15
2017-03-07T03:30:53.937Z,21.18
2017-03-07T03:31:22.016Z,21.06
2017-03-07T03:31:50.180Z,21.16
2017-03-07T03:32:18.349Z,21.11
2017-03-07T03:32:46.691Z,21.16
2017-03-07T03:33:14.976Z,21.11
2017-03-07T03:33:43.253Z,21.12
2017-03-07T03:34:11.352Z,21.16
2017-03-07T03:34:39.543Z,21.15
2017-03-07T03:35:07.733Z,21.12
2017-03-07T03:35:35.816Z,21.22
2017-03-07T03:36:04.245Z,21.3
2017-03-07T03:36:32.442Z,21.23
2017-03-07T03:37:00.686Z,21.19
2017-03-07T03:37:28.757Z,21.31
2017-03-07T03:37:56.938Z,21.28
2017-03-07T03:38:25.180Z,21.23
2017-03-07T03:38:53.384Z,21.25
2017-03-07T03:39:21.607Z,21.27
2017-03-07T03:39:49.592Z,21.25
2017-03-07T03:40:17.657Z,21.31
2017-03-07T03:40:45.860Z,21.22
2017-03-07T03:41:13.918Z,21.25
2017-03-07T03:41:41.989Z,21.27
2017-03-07T03:42:10.082Z,21.27
2017-03-07T03:42:38.204Z,21.25
2017-03-07T03:43:06.497Z,21.22
2017-03-07T03:43:34.676Z,21.31
2017-03-07T03:44:02.959Z,21.27
2017-03-07T03:44:31.105Z,21.22
2017-03-07T03:44:59.289Z,21.25
2017-03-07T03:45:27.407Z,21.15
2017-03-07T03:45:55.588Z,21.25
2017-03-07T03:46:23.889Z,21.27
2017-03-07T03:46:52.174Z,21.25
2017-03-07T03:47:20.372Z,21.22
2017-03-07T03:47:48.581Z,21.27
2017-03-07T03:48:16.841Z,21.23
2017-03-07T03:48:44.990Z,21.28
2017-03-07T03:49:13.011Z,21.27
2017-03-07T03:49:41.185Z,21.3
2017-03-07T03:50:09.408Z,21.3
2017-03-07T03:50:37.482Z,21.27
2017-03-07T03:51:05.688Z,21.27
2017-03-07T03:51:33.899Z,21.27
2017-03-07T03:52:01.899Z,21.27
2017-03-07T03:52:30.066Z,21.23
2017-03-07T03:52:58.150Z,21.27
2017-03-07T03:53:26.314Z,21.27
2017-03-07T03:53:54.480Z,21.25
2017-03-07T03:54:22.790Z,21.27
2017-03-07T03:54:50.955Z,21.31
2017-03-07T03:55:19.246Z,21.23
2017-03-07T03:55:47.540Z,21.28
2017-03-07T03:56:15.742Z,21.23
2017-03-07T03:56:43.871Z,21.22
2017-03-07T03:57:11.931Z,21.23
2017-03-07T03:57:40.135Z,21.31
2017-03-07T03:58:08.456Z,21.28
2017-03-07T03:58:36.777Z,21.25
2017-03-07T03:59:04.986Z,21.25
2017-03-07T03:59:33.170Z,21.23
2017-03-07T04:00:01.305Z,21.19
2017-03-07T04:00:29.467Z,21.23
2017-03-07T04:00:57.442Z,21.22
2017-03-07T04:01:25.727Z,21.13
2017-03-07T04:01:53.993Z,21.15
2017-03-07T04:02:22.277Z,21.22
2017-03-07T04:02:50.406Z,21.15
2017-03-07T04:03:18.531Z,21.18
2017-03-07T04:03:46.660Z,21.15
2017-03-07T04:04:14.825Z,21.11
2017-03-07T04:04:42.958Z,21.18
2017-03-07T04:05:11.146Z,21.15
2017-03-07T04:05:39.405Z,21.15
2017-03-07T04:06:07.864Z,21.15
2017-03-07T04:06:36.075Z,21.25
2017-03-07T04:07:04.153Z,21.18
2017-03-07T04:07:32.295Z,21.16
2017-03-07T04:08:00.576Z,21.12
2017-03-07T04:08:28.663Z,21.25
2017-03-07T04:08:56.930Z,21.18
2017-03-07T04:09:25.081Z,21.12
2017-03-07T04:09:53.152Z,21.21
2017-03-07T04:10:21.291Z,21.13
2017-03-07T04:10:49.512Z,21.15
2017-03-07T04:11:17.932Z,21.15
2017-03-07T04:11:45.969Z,21.11
2017-03-07T04:12:14.186Z,21.12
2017-03-07T04:12:42.223Z,21.16
2017-03-07T04:13:10.382Z,21.13
2017-03-07T04:13:38.704Z,21.18
2017-03-07T04:14:06.988Z,21.16
2017-03-07T04:14:35.047Z,21.15
2017-03-07T04:15:03.162Z,21.11
2017-03-07T04:15:31.278Z,21.08
2017-03-07T04:15:59.397Z,21.12
2017-03-07T04:16:27.562Z,21.12
2017-03-07T04:16:55.710Z,21.09
2017-03-07T04:17:23.771Z,21.03
2017-03-07T04:17:52.012Z,21.15
2017-03-07T04:18:20.181Z,21.12
2017-03-07T04:18:48.402Z,21.08
2017-03-07T04:19:16.578Z,21.08
2017-03-07T04:19:44.786Z,21.13
2017-03-07T04:20:13.046Z,20.97
2017-03-07T04:20:41.287Z,21.01
2017-03-07T04:21:09.494Z,21.08
2017-03-07T04:21:37.696Z,21.08
2017-03-07T04:22:05.892Z,21.08
2017-03-07T04:22:34.115Z,21.01
2017-03-07T04:23:02.245Z,21.08
2017-03-07T04:23:30.471Z,20.98
2017-03-07T04:23:58.646Z,21.12
2017-03-07T04:24:26.886Z,21.08
2017-03-07T04:24:55.010Z,21
2017-03-07T04:25:23.246Z,21.01
2017-03-07T04:25:51.265Z,21.04
2017-03-07T04:26:19.504Z,21.06
2017-03-07T04:26:47.522Z,21.12
2017-03-07T04:27:15.631Z,20.98
2017-03-07T04:27:43.755Z,21.04
2017-03-07T04:28:11.870Z,21.06
2017-03-07T04:28:39.896Z,20.98
2017-03-07T04:29:08.073Z,21.06
2017-03-07T04:29:36.134Z,21.03
2017-03-07T04:30:04.376Z,21.01
2017-03-07T04:30:32.592Z,21.03
2017-03-07T04:31:00.667Z,20.98
2017-03-07T04:31:28.935Z,21.01
2017-03-07T04:31:56.910Z,20.98
2017-03-07T04:32:25.212Z,21.04
2017-03-07T04:32:53.491Z,20.98
2017-03-07T04:33:21.737Z,20.96
2017-03-07T04:33:49.848Z,20.97
2017-03-07T04:34:17.990Z,21.04
2017-03-07T04:34:46.126Z,21.08
2017-03-07T04:35:14.219Z,21.06
2017-03-07T04:35:42.402Z,21.12
2017-03-07T04:36:10.498Z,21.15
2017-03-07T04:36:38.762Z,21.13
2017-03-07T04:37:06.994Z,21.16
2017-03-07T04:37:35.357Z,21.13
2017-03-07T04:38:03.639Z,21.16
2017-03-07T04:38:31.705Z,21.19
2017-03-07T04:38:59.858Z,21.12
2017-03-07T04:39:27.957Z,21.19
2017-03-07T04:39:56.130Z,21.13
2017-03-07T04:40:24.192Z,21.11
2017-03-07T04:40:52.373Z,21.06
2017-03-07T04:41:20.531Z,21.16
2017-03-07T04:41:48.511Z,21.16
2017-03-07T04:42:16.691Z,21.13
2017-03-07T04:42:45.013Z,21.13
2017-03-07T04:43:13.149Z,21.16
2017-03-07T04:43:41.454Z,21.06
2017-03-07T04:44:09.582Z,21.18
2017-03-07T04:44:37.814Z,21.11
2017-03-07T04:45:06.024Z,21.18
2017-03-07T04:45:34.327Z,21.15
2017-03-07T04:46:02.453Z,21.18
2017-03-07T04:46:30.729Z,21.22
2017-03-07T04:46:58.938Z,21.13
2017-03-07T04:47:27.140Z,21.06
2017-03-07T04:47:55.440Z,21.03
2017-03-07T04:48:23.725Z,21.13
2017-03-07T04:48:51.884Z,21.06
2017-03-07T04:49:20.031Z,21.11
2017-03-07T04:49:48.006Z,21.06
2017-03-07T04:50:16.259Z,21.01
2017-03-07T04:50:44.552Z,21.04
2017-03-07T04:51:12.780Z,21.04
2017-03-07T04:51:41.044Z,21
2017-03-07T04:52:09.219Z,21.03
2017-03-07T04:52:37.435Z,21.03
2017-03-07T04:53:05.728Z,21.04
2017-03-07T04:53:33.880Z,21.01
2017-03-07T04:54:02.147Z,21.04
2017-03-07T04:54:30.431Z,20.98
2017-03-07T04:54:58.647Z,21.09
2017-03-07T04:55:26.824Z,21.03
2017-03-07T04:55:54.998Z,21.08
2017-03-07T04:56:23.068Z,20.98
2017-03-07T04:56:51.337Z,20.98
2017-03-07T04:57:19.388Z,21
2017-03-07T04:57:47.513Z,21.09
2017-03-07T04:58:15.727Z,21.09
2017-03-07T04:58:44.011Z,21.15
2017-03-07T04:59:12.098Z,21.09
2017-03-07T04:59:40.226Z,21.09
2017-03-07T05:00:08.269Z,21.12
2017-03-07T05:00:36.433Z,21.15
2017-03-07T05:01:04.644Z,21.19
2017-03-07T05:01:32.832Z,21.13
2017-03-07T05:02:00.804Z,21.09
2017-03-07T05:02:28.989Z,21.16
2017-03-07T05:02:57.251Z,21.08
2017-03-07T05:03:25.375Z,21.11
2017-03-07T05:03:53.590Z,21.13
2017-03-07T05:04:21.792Z,21.13
2017-03-07T05:04:49.992Z,21.12
2017-03-07T05:05:18.116Z,21.15
2017-03-07T05:05:46.219Z,21.16
2017-03-07T05:06:14.394Z,21.16
2017-03-07T05:06:42.520Z,21.18
2017-03-07T05:07:10.649Z,21.19
2017-03-07T05:07:39.224Z,21.16
2017-03-07T05:08:07.238Z,21.11
2017-03-07T05:08:35.411Z,21.13
2017-03-07T05:09:03.513Z,21.18
2017-03-07T05:09:31.816Z,21.18
2017-03-07T05:09:59.856Z,21.15
2017-03-07T05:10:27.854Z,21.15
2017-03-07T05:10:56.047Z,21.15
2017-03-07T05:11:24.205Z,21.08
2017-03-07T05:11:52.329Z,21.12
2017-03-07T05:12:20.549Z,21.18
2017-03-07T05:12:48.991Z,21.09
2017-03-07T05:13:17.195Z,21.12
2017-03-07T05:13:45.325Z,21.04
2017-03-07T05:14:13.509Z,21.13
2017-03-07T05:14:41.587Z,21.19
2017-03-07T05:15:09.647Z,21.18
2017-03-07T05:15:37.735Z,21.13
2017-03-07T05:16:05.893Z,21.09
2017-03-07T05:16:34.122Z,21.12
2017-03-07T05:17:02.246Z,21.08
2017-03-07T05:17:30.433Z,21.09
2017-03-07T05:17:58.707Z,21.11
2017-03-07T05:18:26.809Z,21.21
2017-03-07T05:18:54.963Z,21.16
2017-03-07T05:19:23.182Z,21.12
2017-03-07T05:19:51.377Z,21.08
2017-03-07T05:20:19.573Z,21.12
2017-03-07T05:20:47.557Z,21.15
2017-03-07T05:21:15.855Z,21.13
2017-03-07T05:21:44.166Z,21.15
2017-03-07T05:22:12.395Z,21.11
2017-03-07T05:22:40.625Z,21.18
2017-03-07T05:23:09.025Z,21.11
2017-03-07T05:23:37.148Z,21.21
2017-03-07T05:24:05.328Z,21.12
2017-03-07T05:24:33.474Z,21.23
2017-03-07T05:25:01.478Z,21.16
2017-03-07T05:25:29.728Z,21.18
2017-03-07T05:25:57.998Z,21.18
2017-03-07T05:26:26.171Z,21.13
2017-03-07T05:26:54.343Z,21.12
2017-03-07T05:27:22.552Z,21.11
2017-03-07T05:27:50.728Z,21.16
2017-03-07T05:28:18.951Z,21.19
2017-03-07T05:28:47.143Z,21.12
2017-03-07T05:29:15.231Z,21.12
2017-03-07T05:29:43.311Z,21.13
2017-03-07T05:30:11.296Z,21.15
2017-03-07T05:30:39.482Z,21.12
2017-03-07T05:31:07.668Z,21.15
2017-03-07T05:31:35.751Z,21.16
2017-03-07T05:32:04.052Z,21.16
2017-03-07T05:32:32.210Z,21.19
2017-03-07T05:33:00.611Z,21.18
2017-03-07T05:33:28.747Z,21.15
2017-03-07T05:33:56.946Z,21.15
2017-03-07T05:34:24.932Z,21.13
2017-03-07T05:34:53.171Z,21.19
2017-03-07T05:35:21.366Z,21.18
2017-03-07T05:35:49.598Z,21.12
2017-03-07T05:36:17.916Z,21.22
2017-03-07T05:36:46.024Z,21.13
2017-03-07T05:37:14.245Z,21.19
2017-03-07T05:37:42.455Z,21.18
2017-03-07T05:38:10.743Z,21.15
2017-03-07T05:38:39.002Z,21.3
2017-03-07T05:39:07.107Z,21.16
2017-03-07T05:39:35.215Z,21.16
2017-03-07T05:40:03.405Z,21.25
2017-03-07T05:40:31.660Z,21.15
2017-03-07T05:40:59.844Z,21.15
2017-03-07T05:41:28.122Z,21.15
2017-03-07T05:41:56.197Z,21.15
2017-03-07T05:42:24.477Z,21.13
2017-03-07T05:42:52.648Z,21.22
2017-03-07T05:43:20.813Z,21.18
2017-03-07T05:43:48.876Z,21.21
2017-03-07T05:44:17.035Z,21.15
2017-03-07T05:44:45.175Z,21.21
2017-03-07T05:45:13.379Z,21.16
2017-03-07T05:45:41.514Z,21.15
2017-03-07T05:46:09.700Z,21.18
2017-03-07T05:46:37.992Z,21.11
2017-03-07T05:47:06.252Z,21.11
2017-03-07T05:47:34.321Z,21.13
2017-03-07T05:48:02.990Z,21.15
2017-03-07T05:48:31.091Z,21.11
2017-03-07T05:48:59.375Z,21.04
2017-03-07T05:49:27.695Z,21.18
2017-03-07T05:49:55.784Z,21.11
2017-03-07T05:50:23.970Z,21.11
2017-03-07T05:50:52.173Z,21.03
2017-03-07T05:51:20.383Z,21.13
2017-03-07T05:51:48.574Z,21.06
2017-03-07T05:52:16.566Z,21
2017-03-07T05:52:44.815Z,20.98
2017-03-07T05:53:13.336Z,21.09
2017-03-07T05:53:41.297Z,21.03
2017-03-07T05:54:09.522Z,21.03
2017-03-07T05:54:37.750Z,20.97
2017-03-07T05:55:05.893Z,21.03
2017-03-07T05:55:34.004Z,21.04
2017-03-07T05:56:02.255Z,20.96
2017-03-07T05:56:30.328Z,21
2017-03-07T05:56:58.239Z,20.98
2017-03-07T05:57:26.371Z,21.01
2017-03-07T05:57:54.479Z,20.94
2017-03-07T05:58:22.864Z,21.01
2017-03-07T05:58:50.959Z,20.94
2017-03-07T05:59:19.248Z,20.98
2017-03-07T05:59:47.358Z,21
2017-03-07T06:00:15.645Z,20.98
2017-03-07T06:00:43.940Z,21.01
2017-03-07T06:01:12.012Z,20.96
2017-03-07T06:01:40.079Z,21.04
2017-03-07T06:02:08.322Z,21.06
2017-03-07T06:02:36.511Z,21.04
2017-03-07T06:03:04.580Z,21
2017-03-07T06:03:32.918Z,21.04
2017-03-07T06:04:01.028Z,21.03
2017-03-07T06:04:29.187Z,21.03
2017-03-07T06:04:57.372Z,21.04
2017-03-07T06:05:25.529Z,21.01
2017-03-07T06:05:53.861Z,21.01